Hardwick, New Jersey
Current Conditions -  °F | °C
As of 1:53 PM on Thursday 30 Oct 2014 (Local Time) from KFWN Reporting Station
Overcast Overcast  
Wind Chill: 53°   Ceiling: 4200
Heat Index: 53°   Visibility: 10mi
Dew Point: 36°   Wind: 7mph
Humidity: 52%   Direction: 310°NW
Pressure: 30"   Gusts: NA
Location:  40.9812°N, 74.9611°W
Report Text: KFWN 301753Z AUTO 31006KT 10SM OVC042 12/02 A3000 RMK AO2 SLP160 T01170022 10128 20056 58005
Loading
Personal Weather Stations






























Interactive Weather Map
Tropical Storm Tracking
New forecast layout! Learn more

10-Day Weather Forecast

Advertisements
Track Severe Weather on mobile